sensor_id;sensor_type;location;lat;lon;timestamp;pressure;altitude;pressure_sealevel;temperature;humidity
7018;BME280;3549;42.162;24.726;2023-04-28T00:01:15;47622.88;;;-141.97;42.22
7018;BME280;3549;42.162;24.726;2023-04-28T00:03:41;47667.06;;;-141.97;41.64
7018;BME280;3549;42.162;24.726;2023-04-28T00:06:07;47692.06;;;-141.97;41.52
7018;BME280;3549;42.162;24.726;2023-04-28T00:08:32;47676.69;;;-141.97;41.26
7018;BME280;3549;42.162;24.726;2023-04-28T00:10:57;47632.47;;;-141.97;41.21
7018;BME280;3549;42.162;24.726;2023-04-28T00:13:23;47703.59;;;-141.97;40.84
7018;BME280;3549;42.162;24.726;2023-04-28T00:15:52;47672.84;;;-141.97;41.14
7018;BME280;3549;42.162;24.726;2023-04-28T00:18:19;47638.25;;;-141.97;41.59
7018;BME280;3549;42.162;24.726;2023-04-28T00:20:44;47640.16;;;-141.97;41.73
7018;BME280;3549;42.162;24.726;2023-04-28T00:23:09;47626.72;;;-141.97;41.13
7018;BME280;3549;42.162;24.726;2023-04-28T00:25:35;47649.78;;;-141.97;41.40
7018;BME280;3549;42.162;24.726;2023-04-28T00:28:00;47603.66;;;-141.97;41.67
7018;BME280;3549;42.162;24.726;2023-04-28T00:30:29;47647.84;;;-141.97;41.91
7018;BME280;3549;42.162;24.726;2023-04-28T00:32:55;47642.09;;;-141.97;42.23
7018;BME280;3549;42.162;24.726;2023-04-28T00:35:20;47694.00;;;-141.97;42.56
7018;BME280;3549;42.162;24.726;2023-04-28T00:37:46;47620.94;;;-141.97;43.20
7018;BME280;3549;42.162;24.726;2023-04-28T00:40:11;47557.53;;;-141.97;43.31
7018;BME280;3549;42.162;24.726;2023-04-28T00:42:37;47576.75;;;-141.97;43.25
7018;BME280;3549;42.162;24.726;2023-04-28T00:45:03;47644.00;;;-141.97;43.33
7018;BME280;3549;42.162;24.726;2023-04-28T00:47:35;47634.41;;;-141.97;44.03
7018;BME280;3549;42.162;24.726;2023-04-28T00:50:02;47651.69;;;-141.97;44.19
7018;BME280;3549;42.162;24.726;2023-04-28T00:52:28;47595.97;;;-141.97;44.71
7018;BME280;3549;42.162;24.726;2023-04-28T00:54:54;47595.97;;;-141.97;44.93
7018;BME280;3549;42.162;24.726;2023-04-28T00:57:21;47653.63;;;-141.97;44.63
7018;BME280;3549;42.162;24.726;2023-04-28T00:59:47;47628.63;;;-141.97;45.25
7018;BME280;3549;42.162;24.726;2023-04-28T01:02:13;47628.63;;;-141.97;45.63
7018;BME280;3549;42.162;24.726;2023-04-28T01:04:43;47607.50;;;-141.97;46.24
7018;BME280;3549;42.162;24.726;2023-04-28T01:07:08;47595.97;;;-141.97;46.35
7018;BME280;3549;42.162;24.726;2023-04-28T01:09:34;47649.78;;;-141.97;46.36
7018;BME280;3549;42.162;24.726;2023-04-28T01:11:59;47559.44;;;-141.97;47.03
7018;BME280;3549;42.162;24.726;2023-04-28T01:14:25;47644.00;;;-141.97;47.28
7018;BME280;3549;42.162;24.726;2023-04-28T01:16:50;47644.00;;;-141.97;48.47
7018;BME280;3549;42.162;24.726;2023-04-28T01:19:22;47613.25;;;-141.97;48.45
7018;BME280;3549;42.162;24.726;2023-04-28T01:21:51;47642.09;;;-141.97;48.61
7018;BME280;3549;42.162;24.726;2023-04-28T01:24:16;47611.34;;;-141.97;49.19
7018;BME280;3549;42.162;24.726;2023-04-28T01:26:45;47607.50;;;-141.97;48.94
7018;BME280;3549;42.162;24.726;2023-04-28T01:29:10;47611.34;;;-141.97;49.16
7018;BME280;3549;42.162;24.726;2023-04-28T01:31:36;47649.78;;;-141.97;49.73
7018;BME280;3549;42.162;24.726;2023-04-28T01:34:01;47622.88;;;-141.97;50.41
7018;BME280;3549;42.162;24.726;2023-04-28T01:36:27;47653.63;;;-141.97;51.07
7018;BME280;3549;42.162;24.726;2023-04-28T01:38:56;47626.72;;;-141.97;51.36
7018;BME280;3549;42.162;24.726;2023-04-28T01:41:21;47572.91;;;-141.97;51.76
7018;BME280;3549;42.162;24.726;2023-04-28T01:43:46;47619.03;;;-141.97;51.91
7018;BME280;3549;42.162;24.726;2023-04-28T01:46:12;47649.78;;;-141.97;51.81
7018;BME280;3549;42.162;24.726;2023-04-28T01:48:37;47651.69;;;-141.97;52.05
7018;BME280;3549;42.162;24.726;2023-04-28T01:51:03;47645.94;;;-141.97;52.05
7018;BME280;3549;42.162;24.726;2023-04-28T01:53:29;47619.03;;;-141.97;52.45
7018;BME280;3549;42.162;24.726;2023-04-28T01:55:55;47734.34;;;-141.97;52.54
7018;BME280;3549;42.162;24.726;2023-04-28T01:58:20;47622.88;;;-141.97;51.63
7018;BME280;3549;42.162;24.726;2023-04-28T02:00:46;47638.25;;;-141.97;52.08
7018;BME280;3549;42.162;24.726;2023-04-28T02:03:12;47661.31;;;-141.97;51.64
7018;BME280;3549;42.162;24.726;2023-04-28T02:05:37;47644.00;;;-141.97;51.27
7018;BME280;3549;42.162;24.726;2023-04-28T02:08:03;47592.13;;;-141.97;51.62
7018;BME280;3549;42.162;24.726;2023-04-28T02:10:29;47709.38;;;-141.97;51.30
7018;BME280;3549;42.162;24.726;2023-04-28T02:12:58;47636.31;;;-141.97;52.19
7018;BME280;3549;42.162;24.726;2023-04-28T02:15:24;47624.78;;;-141.97;51.84
7018;BME280;3549;42.162;24.726;2023-04-28T02:17:50;47645.94;;;-141.97;51.47
7018;BME280;3549;42.162;24.726;2023-04-28T02:20:15;47467.19;;;-141.97;51.15
7018;BME280;3549;42.162;24.726;2023-04-28T02:22:41;47684.38;;;-141.97;50.50
7018;BME280;3549;42.162;24.726;2023-04-28T02:25:08;47651.69;;;-141.97;50.76
7018;BME280;3549;42.162;24.726;2023-04-28T02:27:37;47661.31;;;-141.97;49.62
7018;BME280;3549;42.162;24.726;2023-04-28T02:30:04;47551.75;;;-141.97;49.21
7018;BME280;3549;42.162;24.726;2023-04-28T02:32:30;47718.97;;;-141.97;49.15
7018;BME280;3549;42.162;24.726;2023-04-28T02:34:56;47730.50;;;-141.97;49.09
7018;BME280;3549;42.162;24.726;2023-04-28T02:37:22;47446.03;;;-141.97;49.26
7018;BME280;3549;42.162;24.726;2023-04-28T02:39:48;47634.41;;;-141.97;49.73
7018;BME280;3549;42.162;24.726;2023-04-28T02:42:17;47530.59;;;-141.97;49.53
7018;BME280;3549;42.162;24.726;2023-04-28T02:44:56;47724.75;;;-141.97;49.15
7018;BME280;3549;42.162;24.726;2023-04-28T02:47:21;47480.63;;;-141.97;49.41
7018;BME280;3549;42.162;24.726;2023-04-28T02:49:47;47657.47;;;-141.97;49.07
7018;BME280;3549;42.162;24.726;2023-04-28T02:52:12;47615.19;;;-141.97;49.13
7018;BME280;3549;42.162;24.726;2023-04-28T02:54:38;47465.25;;;-141.97;49.24
7018;BME280;3549;42.162;24.726;2023-04-28T02:57:04;47463.34;;;-141.97;49.13
7018;BME280;3549;42.162;24.726;2023-04-28T02:59:29;47478.72;;;-141.97;49.03
7018;BME280;3549;42.162;24.726;2023-04-28T03:01:55;47432.59;;;-141.97;49.25
7018;BME280;3549;42.162;24.726;2023-04-28T03:04:21;47634.41;;;-141.97;49.34
7018;BME280;3549;42.162;24.726;2023-04-28T03:06:47;47430.66;;;-141.97;49.54
7018;BME280;3549;42.162;24.726;2023-04-28T03:09:14;47609.41;;;-141.97;49.40
7018;BME280;3549;42.162;24.726;2023-04-28T03:11:39;47686.31;;;-141.97;49.53
7018;BME280;3549;42.162;24.726;2023-04-28T03:14:05;47692.06;;;-141.97;48.92
7018;BME280;3549;42.162;24.726;2023-04-28T03:16:31;47546.00;;;-141.97;48.63
7018;BME280;3549;42.162;24.726;2023-04-28T03:18:56;47461.41;;;-141.97;48.40
7018;BME280;3549;42.162;24.726;2023-04-28T03:21:22;47451.81;;;-141.97;48.26
7018;BME280;3549;42.162;24.726;2023-04-28T03:23:47;47447.97;;;-141.97;48.12
7018;BME280;3549;42.162;24.726;2023-04-28T03:26:13;47644.00;;;-141.97;47.91
7018;BME280;3549;42.162;24.726;2023-04-28T03:28:39;47615.19;;;-141.97;47.40
7018;BME280;3549;42.162;24.726;2023-04-28T03:31:05;47511.38;;;-141.97;47.28
7018;BME280;3549;42.162;24.726;2023-04-28T03:33:31;47701.69;;;-141.97;47.11
7018;BME280;3549;42.162;24.726;2023-04-28T03:35:56;47743.97;;;-141.97;47.19
7018;BME280;3549;42.162;24.726;2023-04-28T03:38:22;47511.38;;;-141.97;47.60
7018;BME280;3549;42.162;24.726;2023-04-28T03:40:47;47499.84;;;-141.97;48.10
7018;BME280;3549;42.162;24.726;2023-04-28T03:43:12;47538.28;;;-141.97;48.27
7018;BME280;3549;42.162;24.726;2023-04-28T03:45:39;47622.88;;;-141.97;48.18
7018;BME280;3549;42.162;24.726;2023-04-28T03:48:05;47692.06;;;-141.97;48.23
7018;BME280;3549;42.162;24.726;2023-04-28T03:50:31;47676.69;;;-141.97;48.10
7018;BME280;3549;42.162;24.726;2023-04-28T03:52:56;47509.47;;;-141.97;48.29
7018;BME280;3549;42.162;24.726;2023-04-28T03:55:22;47522.91;;;-141.97;48.05
7018;BME280;3549;42.162;24.726;2023-04-28T03:57:48;47484.47;;;-141.97;47.75
7018;BME280;3549;42.162;24.726;2023-04-28T04:00:13;47707.44;;;-141.97;48.01
7018;BME280;3549;42.162;24.726;2023-04-28T04:02:39;47557.53;;;-141.97;47.68
7018;BME280;3549;42.162;24.726;2023-04-28T04:05:05;47651.69;;;-141.97;47.89
7018;BME280;3549;42.162;24.726;2023-04-28T04:07:31;47665.16;;;-141.97;47.75
7018;BME280;3549;42.162;24.726;2023-04-28T04:10:04;47538.28;;;-141.97;47.80
7018;BME280;3549;42.162;24.726;2023-04-28T04:12:30;47722.81;;;-141.97;47.20
7018;BME280;3549;42.162;24.726;2023-04-28T04:14:56;47661.31;;;-141.97;47.64
7018;BME280;3549;42.162;24.726;2023-04-28T04:17:21;47513.31;;;-141.97;47.31
7018;BME280;3549;42.162;24.726;2023-04-28T04:19:46;47695.91;;;-141.97;47.31
7018;BME280;3549;42.162;24.726;2023-04-28T04:22:12;47636.31;;;-141.97;47.05
7018;BME280;3549;42.162;24.726;2023-04-28T04:24:38;47555.59;;;-141.97;47.09
7018;BME280;3549;42.162;24.726;2023-04-28T04:27:03;47684.38;;;-141.97;46.48
7018;BME280;3549;42.162;24.726;2023-04-28T04:29:29;47471.03;;;-141.97;46.14
7018;BME280;3549;42.162;24.726;2023-04-28T04:31:55;47557.53;;;-141.97;45.69
7018;BME280;3549;42.162;24.726;2023-04-28T04:34:21;47718.97;;;-141.97;45.66
7018;BME280;3549;42.162;24.726;2023-04-28T04:36:47;47515.22;;;-141.97;45.37
7018;BME280;3549;42.162;24.726;2023-04-28T04:39:12;47580.59;;;-141.97;45.17
7018;BME280;3549;42.162;24.726;2023-04-28T04:41:38;47717.06;;;-141.97;45.08
7018;BME280;3549;42.162;24.726;2023-04-28T04:44:04;47657.47;;;-141.97;45.43
7018;BME280;3549;42.162;24.726;2023-04-28T04:46:30;47538.28;;;-141.97;45.05
7018;BME280;3549;42.162;24.726;2023-04-28T04:49:01;47644.00;;;-141.97;44.77
7018;BME280;3549;42.162;24.726;2023-04-28T04:51:27;47663.22;;;-141.97;44.76
7018;BME280;3549;42.162;24.726;2023-04-28T04:53:54;47688.22;;;-141.97;44.80
7018;BME280;3549;42.162;24.726;2023-04-28T04:56:19;47632.47;;;-141.97;45.39
7018;BME280;3549;42.162;24.726;2023-04-28T04:58:45;47686.31;;;-141.97;44.28
7018;BME280;3549;42.162;24.726;2023-04-28T05:01:10;47678.63;;;-141.97;44.52
7018;BME280;3549;42.162;24.726;2023-04-28T05:03:36;47588.28;;;-141.97;44.85
7018;BME280;3549;42.162;24.726;2023-04-28T05:06:01;47715.13;;;-141.97;44.51
7018;BME280;3549;42.162;24.726;2023-04-28T05:08:28;47695.91;;;-141.97;44.33
7018;BME280;3549;42.162;24.726;2023-04-28T05:10:53;47701.69;;;-141.97;44.03
7018;BME280;3549;42.162;24.726;2023-04-28T05:13:19;47745.88;;;-141.97;44.35
7018;BME280;3549;42.162;24.726;2023-04-28T05:15:45;47494.09;;;-141.97;44.17
7018;BME280;3549;42.162;24.726;2023-04-28T05:18:10;47742.03;;;-141.97;43.73
7018;BME280;3549;42.162;24.726;2023-04-28T05:20:37;47619.03;;;-141.97;43.06
7018;BME280;3549;42.162;24.726;2023-04-28T05:23:03;47649.78;;;-141.97;43.63
7018;BME280;3549;42.162;24.726;2023-04-28T05:25:28;47634.41;;;-141.97;43.90
7018;BME280;3549;42.162;24.726;2023-04-28T05:27:55;47688.22;;;-141.97;44.01
7018;BME280;3549;42.162;24.726;2023-04-28T05:30:20;47511.38;;;-141.97;43.41
7018;BME280;3549;42.162;24.726;2023-04-28T05:32:45;47692.06;;;-141.97;43.50
7018;BME280;3549;42.162;24.726;2023-04-28T05:35:11;47615.19;;;-141.97;42.96
7018;BME280;3549;42.162;24.726;2023-04-28T05:37:36;47442.19;;;-141.97;43.01
7018;BME280;3549;42.162;24.726;2023-04-28T05:40:02;47661.31;;;-141.97;43.49
7018;BME280;3549;42.162;24.726;2023-04-28T05:42:28;47638.25;;;-141.97;42.34
7018;BME280;3549;42.162;24.726;2023-04-28T05:44:53;47480.63;;;-141.97;42.59
7018;BME280;3549;42.162;24.726;2023-04-28T05:47:19;47674.78;;;-141.97;42.43
7018;BME280;3549;42.162;24.726;2023-04-28T05:49:45;47642.09;;;-141.97;42.37
7018;BME280;3549;42.162;24.726;2023-04-28T05:52:11;47717.06;;;-141.97;42.12
7018;BME280;3549;42.162;24.726;2023-04-28T05:54:36;47734.34;;;-141.97;42.03
7018;BME280;3549;42.162;24.726;2023-04-28T05:57:02;47697.84;;;-141.97;41.53
7018;BME280;3549;42.162;24.726;2023-04-28T05:59:28;47465.25;;;-141.97;41.82
7018;BME280;3549;42.162;24.726;2023-04-28T06:01:54;47657.47;;;-141.97;41.79
7018;BME280;3549;42.162;24.726;2023-04-28T06:04:20;47678.63;;;-141.97;41.34
7018;BME280;3549;42.162;24.726;2023-04-28T06:06:45;47663.22;;;-141.97;41.42
7018;BME280;3549;42.162;24.726;2023-04-28T06:09:11;47653.63;;;-141.97;40.81
7018;BME280;3549;42.162;24.726;2023-04-28T06:11:36;47642.09;;;-141.97;41.19
7018;BME280;3549;42.162;24.726;2023-04-28T06:14:02;47524.84;;;-141.97;41.18
7018;BME280;3549;42.162;24.726;2023-04-28T06:16:27;47499.84;;;-141.97;40.78
7018;BME280;3549;42.162;24.726;2023-04-28T06:18:53;47465.25;;;-141.97;40.21
7018;BME280;3549;42.162;24.726;2023-04-28T06:21:18;47695.91;;;-141.97;40.26
7018;BME280;3549;42.162;24.726;2023-04-28T06:23:45;47651.69;;;-141.97;39.99
7018;BME280;3549;42.162;24.726;2023-04-28T06:26:11;47680.53;;;-141.97;40.05
7018;BME280;3549;42.162;24.726;2023-04-28T06:28:37;47517.16;;;-141.97;40.07
7018;BME280;3549;42.162;24.726;2023-04-28T06:31:02;47676.69;;;-141.97;39.93
7018;BME280;3549;42.162;24.726;2023-04-28T06:33:27;47559.44;;;-141.97;39.56
7018;BME280;3549;42.162;24.726;2023-04-28T06:35:53;47657.47;;;-141.97;39.33
7018;BME280;3549;42.162;24.726;2023-04-28T06:38:18;47624.78;;;-141.97;39.39
7018;BME280;3549;42.162;24.726;2023-04-28T06:40:44;47530.59;;;-141.97;38.93
7018;BME280;3549;42.162;24.726;2023-04-28T06:43:10;47594.03;;;-141.97;38.72
7018;BME280;3549;42.162;24.726;2023-04-28T06:45:36;47597.88;;;-141.97;38.64
7018;BME280;3549;42.162;24.726;2023-04-28T06:48:01;47586.34;;;-141.97;38.72
7018;BME280;3549;42.162;24.726;2023-04-28T06:50:27;47705.53;;;-141.97;38.56
7018;BME280;3549;42.162;24.726;2023-04-28T06:52:52;47620.94;;;-141.97;37.82
7018;BME280;3549;42.162;24.726;2023-04-28T06:55:18;47588.28;;;-141.97;37.17
7018;BME280;3549;42.162;24.726;2023-04-28T06:57:43;47599.81;;;-141.97;37.17
7018;BME280;3549;42.162;24.726;2023-04-28T07:00:09;47692.06;;;-141.97;36.84
7018;BME280;3549;42.162;24.726;2023-04-28T07:02:35;47607.50;;;-141.97;37.11
7018;BME280;3549;42.162;24.726;2023-04-28T07:05:01;47547.91;;;-141.97;37.24
7018;BME280;3549;42.162;24.726;2023-04-28T07:07:27;47642.09;;;-141.97;36.56
7018;BME280;3549;42.162;24.726;2023-04-28T07:09:53;47599.81;;;-141.97;35.04
7018;BME280;3549;42.162;24.726;2023-04-28T07:12:19;47592.13;;;-141.97;34.65
7018;BME280;3549;42.162;24.726;2023-04-28T07:14:44;47569.06;;;-141.97;35.30
7018;BME280;3549;42.162;24.726;2023-04-28T07:17:10;47626.72;;;-141.97;35.40
7018;BME280;3549;42.162;24.726;2023-04-28T07:19:36;47619.03;;;-141.97;34.89
7018;BME280;3549;42.162;24.726;2023-04-28T07:22:01;47578.66;;;-141.97;34.85
7018;BME280;3549;42.162;24.726;2023-04-28T07:24:27;47578.66;;;-141.97;34.71
7018;BME280;3549;42.162;24.726;2023-04-28T07:26:52;47574.81;;;-141.97;35.17
7018;BME280;3549;42.162;24.726;2023-04-28T07:29:18;47611.34;;;-141.97;34.88
7018;BME280;3549;42.162;24.726;2023-04-28T07:31:43;47594.03;;;-141.97;34.19
7018;BME280;3549;42.162;24.726;2023-04-28T07:34:09;47597.88;;;-141.97;33.72
7018;BME280;3549;42.162;24.726;2023-04-28T07:36:34;47597.88;;;-141.97;33.81
7018;BME280;3549;42.162;24.726;2023-04-28T07:39:00;47682.47;;;-141.97;34.08
7018;BME280;3549;42.162;24.726;2023-04-28T07:41:26;47603.66;;;-141.97;34.01
7018;BME280;3549;42.162;24.726;2023-04-28T07:43:52;47597.88;;;-141.97;33.76
7018;BME280;3549;42.162;24.726;2023-04-28T07:46:17;47588.28;;;-141.97;33.09
7018;BME280;3549;42.162;24.726;2023-04-28T07:48:44;47607.50;;;-141.97;33.83
7018;BME280;3549;42.162;24.726;2023-04-28T07:51:09;47595.97;;;-141.97;33.86
7018;BME280;3549;42.162;24.726;2023-04-28T07:53:35;47576.75;;;-141.97;33.91
7018;BME280;3549;42.162;24.726;2023-04-28T07:56:00;47530.59;;;-141.97;33.40
7018;BME280;3549;42.162;24.726;2023-04-28T07:58:26;47582.50;;;-141.97;33.86
7018;BME280;3549;42.162;24.726;2023-04-28T08:00:51;47553.69;;;-141.97;33.67
7018;BME280;3549;42.162;24.726;2023-04-28T08:03:17;47576.75;;;-141.97;33.32
7018;BME280;3549;42.162;24.726;2023-04-28T08:05:42;47572.91;;;-141.97;33.49
7018;BME280;3549;42.162;24.726;2023-04-28T08:08:09;47718.97;;;-141.97;33.44
7018;BME280;3549;42.162;24.726;2023-04-28T08:10:34;47582.50;;;-141.97;33.13
7018;BME280;3549;42.162;24.726;2023-04-28T08:13:00;47561.38;;;-141.97;32.10
7018;BME280;3549;42.162;24.726;2023-04-28T08:15:25;47565.22;;;-141.97;31.73
7018;BME280;3549;42.162;24.726;2023-04-28T08:17:52;47638.25;;;-141.97;31.93
7018;BME280;3549;42.162;24.726;2023-04-28T08:20:17;47695.91;;;-141.97;33.42
7018;BME280;3549;42.162;24.726;2023-04-28T08:22:44;47565.22;;;-141.97;32.54
7018;BME280;3549;42.162;24.726;2023-04-28T08:25:10;47549.84;;;-141.97;31.76
7018;BME280;3549;42.162;24.726;2023-04-28T08:27:36;47519.06;;;-141.97;31.15
7018;BME280;3549;42.162;24.726;2023-04-28T08:30:07;47584.44;;;-141.97;31.77
7018;BME280;3549;42.162;24.726;2023-04-28T08:32:33;47509.47;;;-141.97;31.37
7018;BME280;3549;42.162;24.726;2023-04-28T08:34:59;47538.28;;;-141.97;31.04
7018;BME280;3549;42.162;24.726;2023-04-28T08:37:25;47765.09;;;-141.97;31.33
7018;BME280;3549;42.162;24.726;2023-04-28T08:39:51;47726.66;;;-141.97;31.49
7018;BME280;3549;42.162;24.726;2023-04-28T08:42:25;47569.06;;;-141.97;32.05
7018;BME280;3549;42.162;24.726;2023-04-28T08:44:50;47549.84;;;-141.97;32.25
7018;BME280;3549;42.162;24.726;2023-04-28T08:47:18;47595.97;;;-141.97;32.48
7018;BME280;3549;42.162;24.726;2023-04-28T08:49:46;47584.44;;;-141.97;32.42
7018;BME280;3549;42.162;24.726;2023-04-28T08:52:16;47496.00;;;-141.97;33.07
7018;BME280;3549;42.162;24.726;2023-04-28T08:54:42;47559.44;;;-141.97;34.04
7018;BME280;3549;42.162;24.726;2023-04-28T08:57:09;47517.16;;;-141.97;33.79
7018;BME280;3549;42.162;24.726;2023-04-28T08:59:41;47461.41;;;-141.97;33.22
7018;BME280;3549;42.162;24.726;2023-04-28T09:02:07;47588.28;;;-141.97;32.59
7018;BME280;3549;42.162;24.726;2023-04-28T09:04:33;47572.91;;;-141.97;32.45
7018;BME280;3549;42.162;24.726;2023-04-28T09:06:59;47601.72;;;-141.97;31.76
7018;BME280;3549;42.162;24.726;2023-04-28T09:09:26;47582.50;;;-141.97;31.84
7018;BME280;3549;42.162;24.726;2023-04-28T09:12:01;47603.66;;;-141.97;31.53
7018;BME280;3549;42.162;24.726;2023-04-28T09:14:35;47592.13;;;-141.97;31.29
7018;BME280;3549;42.162;24.726;2023-04-28T09:17:02;47551.75;;;-141.97;31.49
7018;BME280;3549;42.162;24.726;2023-04-28T09:19:37;47565.22;;;-141.97;31.04
7018;BME280;3549;42.162;24.726;2023-04-28T09:22:03;47622.88;;;-141.97;31.78
7018;BME280;3549;42.162;24.726;2023-04-28T09:24:33;47574.81;;;-141.97;31.24
7018;BME280;3549;42.162;24.726;2023-04-28T09:27:04;47563.28;;;-141.97;31.92
7018;BME280;3549;42.162;24.726;2023-04-28T09:29:30;47507.53;;;-141.97;31.21
7018;BME280;3549;42.162;24.726;2023-04-28T09:32:18;47559.44;;;-141.97;31.47
7018;BME280;3549;42.162;24.726;2023-04-28T09:34:49;47569.06;;;-141.97;32.79
7018;BME280;3549;42.162;24.726;2023-04-28T09:37:16;47734.34;;;-141.97;31.27
7018;BME280;3549;42.162;24.726;2023-04-28T09:39:44;47553.69;;;-141.97;30.98
7018;BME280;3549;42.162;24.726;2023-04-28T09:42:09;47546.00;;;-141.97;31.14
7018;BME280;3549;42.162;24.726;2023-04-28T09:44:35;47569.06;;;-141.97;30.57
7018;BME280;3549;42.162;24.726;2023-04-28T09:47:18;47569.06;;;-141.97;30.78
7018;BME280;3549;42.162;24.726;2023-04-28T09:49:57;47522.91;;;-141.97;31.13
7018;BME280;3549;42.162;24.726;2023-04-28T09:52:23;47588.28;;;-141.97;31.50
7018;BME280;3549;42.162;24.726;2023-04-28T09:54:49;47592.13;;;-141.97;30.73
7018;BME280;3549;42.162;24.726;2023-04-28T09:57:16;47605.56;;;-141.97;30.37
7018;BME280;3549;42.162;24.726;2023-04-28T09:59:50;47524.84;;;-141.97;30.22
7018;BME280;3549;42.162;24.726;2023-04-28T10:02:17;47609.41;;;-141.97;29.93
7018;BME280;3549;42.162;24.726;2023-04-28T10:04:44;47695.91;;;-141.97;29.71
7018;BME280;3549;42.162;24.726;2023-04-28T10:07:14;47547.91;;;-141.97;29.96
7018;BME280;3549;42.162;24.726;2023-04-28T10:09:41;47530.59;;;-141.97;29.99
7018;BME280;3549;42.162;24.726;2023-04-28T10:12:12;47546.00;;;-141.97;30.71
7018;BME280;3549;42.162;24.726;2023-04-28T10:14:38;47534.44;;;-141.97;30.40
7018;BME280;3549;42.162;24.726;2023-04-28T10:17:06;47526.75;;;-141.97;30.71
7018;BME280;3549;42.162;24.726;2023-04-28T10:19:32;47605.56;;;-141.97;30.64
7018;BME280;3549;42.162;24.726;2023-04-28T10:27:41;47561.38;;;-141.97;30.36
7018;BME280;3549;42.162;24.726;2023-04-28T10:30:16;47559.44;;;-141.97;29.95
7018;BME280;3549;42.162;24.726;2023-04-28T10:32:42;47595.97;;;-141.97;30.28
7018;BME280;3549;42.162;24.726;2023-04-28T10:38:11;47609.41;;;-141.97;29.72
7018;BME280;3549;42.162;24.726;2023-04-28T10:40:50;47736.28;;;-141.97;29.82
7018;BME280;3549;42.162;24.726;2023-04-28T10:48:20;47576.75;;;-141.97;30.18
7018;BME280;3549;42.162;24.726;2023-04-28T10:56:10;47499.84;;;-141.97;30.00
7018;BME280;3549;42.162;24.726;2023-04-28T10:58:37;47730.50;;;-141.97;30.32
7018;BME280;3549;42.162;24.726;2023-04-28T11:04:04;47524.84;;;-141.97;31.04
7018;BME280;3549;42.162;24.726;2023-04-28T11:06:41;47561.38;;;-141.97;30.39
7018;BME280;3549;42.162;24.726;2023-04-28T11:19:19;47567.13;;;-141.97;31.50
7018;BME280;3549;42.162;24.726;2023-04-28T11:21:46;47524.84;;;-141.97;31.33
7018;BME280;3549;42.162;24.726;2023-04-28T11:24:12;47476.78;;;-141.97;30.85
7018;BME280;3549;42.162;24.726;2023-04-28T11:26:38;47492.16;;;-141.97;30.79
7018;BME280;3549;42.162;24.726;2023-04-28T11:29:04;47488.31;;;-141.97;30.20
7018;BME280;3549;42.162;24.726;2023-04-28T11:31:30;47569.06;;;-141.97;29.04
7018;BME280;3549;42.162;24.726;2023-04-28T11:34:06;47536.38;;;-141.97;28.28
7018;BME280;3549;42.162;24.726;2023-04-28T11:36:37;47532.53;;;-141.97;28.35
7018;BME280;3549;42.162;24.726;2023-04-28T11:39:09;47469.09;;;-141.97;28.51
7018;BME280;3549;42.162;24.726;2023-04-28T11:41:36;47584.44;;;-141.97;29.00
7018;BME280;3549;42.162;24.726;2023-04-28T11:46:48;47536.38;;;-141.97;28.92
7018;BME280;3549;42.162;24.726;2023-04-28T11:49:21;47373.00;;;-141.97;28.69
7018;BME280;3549;42.162;24.726;2023-04-28T11:51:49;47496.00;;;-141.97;27.73
7018;BME280;3549;42.162;24.726;2023-04-28T11:54:27;47476.78;;;-141.97;26.70
7018;BME280;3549;42.162;24.726;2023-04-28T11:56:53;47488.31;;;-141.97;26.44
7018;BME280;3549;42.162;24.726;2023-04-28T11:59:27;47488.31;;;-141.97;25.89
7018;BME280;3549;42.162;24.726;2023-04-28T12:01:57;47642.09;;;-141.97;26.35
7018;BME280;3549;42.162;24.726;2023-04-28T12:07:09;47438.34;;;-141.97;26.54
7018;BME280;3549;42.162;24.726;2023-04-28T12:09:36;47478.72;;;-141.97;25.83
7018;BME280;3549;42.162;24.726;2023-04-28T12:12:03;47457.56;;;-141.97;25.34
7018;BME280;3549;42.162;24.726;2023-04-28T12:14:29;47467.19;;;-141.97;24.91
7018;BME280;3549;42.162;24.726;2023-04-28T12:17:00;47269.22;;;-141.97;24.90
7018;BME280;3549;42.162;24.726;2023-04-28T12:19:26;47409.53;;;-141.97;24.38
7018;BME280;3549;42.162;24.726;2023-04-28T12:22:04;47344.19;;;-141.97;24.52
7018;BME280;3549;42.162;24.726;2023-04-28T12:24:31;47457.56;;;-141.97;24.69
7018;BME280;3549;42.162;24.726;2023-04-28T12:27:17;47432.59;;;-141.97;25.13
7018;BME280;3549;42.162;24.726;2023-04-28T12:29:44;47665.16;;;-141.97;25.42
7018;BME280;3549;42.162;24.726;2023-04-28T12:32:10;47340.34;;;-141.97;25.11
7018;BME280;3549;42.162;24.726;2023-04-28T12:34:37;47407.59;;;-141.97;24.46
7018;BME280;3549;42.162;24.726;2023-04-28T12:37:04;47369.16;;;-141.97;24.48
7018;BME280;3549;42.162;24.726;2023-04-28T12:39:31;47426.81;;;-141.97;24.08
7018;BME280;3549;42.162;24.726;2023-04-28T12:41:57;47438.34;;;-141.97;24.15
7018;BME280;3549;42.162;24.726;2023-04-28T12:44:24;47367.25;;;-141.97;24.28
7018;BME280;3549;42.162;24.726;2023-04-28T12:46:50;47472.94;;;-141.97;24.43
7018;BME280;3549;42.162;24.726;2023-04-28T12:49:17;47492.16;;;-141.97;24.59
7018;BME280;3549;42.162;24.726;2023-04-28T12:51:42;47415.28;;;-141.97;24.73
7018;BME280;3549;42.162;24.726;2023-04-28T12:54:07;47638.25;;;-141.97;24.47
7018;BME280;3549;42.162;24.726;2023-04-28T12:56:33;47353.78;;;-141.97;24.80
7018;BME280;3549;42.162;24.726;2023-04-28T12:59:10;47565.22;;;-141.97;25.37
7018;BME280;3549;42.162;24.726;2023-04-28T13:01:36;47453.72;;;-141.97;25.82
7018;BME280;3549;42.162;24.726;2023-04-28T13:04:01;47396.06;;;-141.97;25.75
7018;BME280;3549;42.162;24.726;2023-04-28T13:06:27;47382.63;;;-141.97;25.79
7018;BME280;3549;42.162;24.726;2023-04-28T13:08:53;47369.16;;;-141.97;25.54
7018;BME280;3549;42.162;24.726;2023-04-28T13:11:19;47440.28;;;-141.97;25.21
7018;BME280;3549;42.162;24.726;2023-04-28T13:13:45;47484.47;;;-141.97;25.55
7018;BME280;3549;42.162;24.726;2023-04-28T13:16:11;47615.19;;;-141.97;25.58
7018;BME280;3549;42.162;24.726;2023-04-28T13:18:42;47449.88;;;-141.97;25.46
7018;BME280;3549;42.162;24.726;2023-04-28T13:21:08;47676.69;;;-141.97;25.14
7018;BME280;3549;42.162;24.726;2023-04-28T13:23:34;47434.50;;;-141.97;24.75
7018;BME280;3549;42.162;24.726;2023-04-28T13:25:59;47442.19;;;-141.97;24.81